createdAt,value
2019-03-05T00:00:11.589Z,7.50
2019-03-05T00:02:52.314Z,7.50
2019-03-05T00:05:32.891Z,7.40
2019-03-05T00:08:13.500Z,7.30
2019-03-05T00:10:54.419Z,7.20
2019-03-05T00:13:34.940Z,7.10
2019-03-05T00:16:15.499Z,7.10
2019-03-05T00:18:56.224Z,7.00
2019-03-05T00:21:36.931Z,7.00
2019-03-05T00:24:18.131Z,7.00
2019-03-05T00:26:58.759Z,7.00
2019-03-05T00:29:39.800Z,6.90
2019-03-05T00:32:20.409Z,6.90
2019-03-05T00:35:01.091Z,6.70
2019-03-05T00:37:41.771Z,6.80
2019-03-05T00:40:22.224Z,6.80
2019-03-05T00:43:02.654Z,6.80
2019-03-05T00:45:43.412Z,6.90
2019-03-05T00:48:23.936Z,6.80
2019-03-05T00:51:04.378Z,6.80
2019-03-05T00:53:44.742Z,6.80
2019-03-05T00:56:25.411Z,6.80
2019-03-05T00:59:06.176Z,6.70
2019-03-05T01:01:46.729Z,6.70
2019-03-05T01:04:27.945Z,6.70
2019-03-05T01:07:08.477Z,6.70
2019-03-05T01:09:48.800Z,6.60
2019-03-05T01:12:29.480Z,6.50
2019-03-05T01:15:10.453Z,6.50
2019-03-05T01:17:51.022Z,6.50
2019-03-05T01:20:31.313Z,6.50
2019-03-05T01:23:11.678Z,6.30
2019-03-05T01:25:52.175Z,6.40
2019-03-05T01:28:32.800Z,6.40
2019-03-05T01:31:32.583Z,6.40
2019-03-05T01:34:17.522Z,6.40
2019-03-05T01:37:00.028Z,6.20
2019-03-05T01:40:00.398Z,6.20
2019-03-05T01:42:40.901Z,6.30
2019-03-05T01:45:21.580Z,6.30
2019-03-05T01:48:02.132Z,6.30
2019-03-05T01:50:42.849Z,6.20
2019-03-05T01:53:23.696Z,6.20
2019-03-05T01:56:04.455Z,6.20
2019-03-05T01:58:45.096Z,6.20
2019-03-05T02:01:25.823Z,6.30
2019-03-05T02:04:06.737Z,6.30
2019-03-05T02:06:47.517Z,6.40
2019-03-05T02:09:28.276Z,6.40
2019-03-05T02:12:08.972Z,6.40
2019-03-05T02:14:49.711Z,6.40
2019-03-05T02:17:30.638Z,6.40
2019-03-05T02:20:11.705Z,6.50
2019-03-05T02:22:52.752Z,6.60
2019-03-05T02:25:33.662Z,6.60
2019-03-05T02:28:14.268Z,6.70
2019-03-05T02:30:55.424Z,6.60
2019-03-05T02:33:35.747Z,6.70
2019-03-05T02:36:16.499Z,6.70
2019-03-05T02:38:57.086Z,6.60
2019-03-05T02:41:37.964Z,6.70
2019-03-05T02:44:18.707Z,6.70
2019-03-05T02:46:59.142Z,6.60
2019-03-05T02:49:39.708Z,6.60
2019-03-05T02:52:20.498Z,6.60
2019-03-05T02:55:01.296Z,6.60
2019-03-05T02:57:41.912Z,6.60
2019-03-05T03:00:41.545Z,6.60
2019-03-05T03:03:27.809Z,6.60
2019-03-05T03:06:15.527Z,6.60
2019-03-05T03:08:56.575Z,6.60
2019-03-05T03:11:37.348Z,6.60
2019-03-05T03:14:18.225Z,6.60
2019-03-05T03:16:58.862Z,6.60
2019-03-05T03:19:39.636Z,6.60
2019-03-05T03:22:20.324Z,6.60
2019-03-05T03:25:01.050Z,6.70
2019-03-05T03:27:41.901Z,6.70
2019-03-05T03:30:22.861Z,6.70
2019-03-05T03:33:03.570Z,6.70
2019-03-05T03:35:44.264Z,6.70
2019-03-05T03:38:25.124Z,6.70
2019-03-05T03:41:05.906Z,6.80
2019-03-05T03:43:46.600Z,6.80
2019-03-05T03:46:27.694Z,6.80
2019-03-05T03:49:08.437Z,6.80
2019-03-05T03:51:51.420Z,6.80
2019-03-05T03:54:31.968Z,6.80
2019-03-05T03:57:12.536Z,6.80
2019-03-05T03:59:53.537Z,6.80
2019-03-05T04:02:34.378Z,6.80
2019-03-05T04:05:15.081Z,6.80
2019-03-05T04:07:55.870Z,6.70
2019-03-05T04:10:36.486Z,6.70
2019-03-05T04:13:17.331Z,6.70
2019-03-05T04:15:58.017Z,6.70
2019-03-05T04:18:38.713Z,6.70
2019-03-05T04:21:20.161Z,6.70
2019-03-05T04:24:01.100Z,6.80
2019-03-05T04:26:41.463Z,6.70
2019-03-05T04:29:22.360Z,6.80
2019-03-05T04:32:03.048Z,6.80
2019-03-05T04:34:43.900Z,6.80
2019-03-05T04:37:24.911Z,6.80
2019-03-05T04:40:05.306Z,6.80
2019-03-05T04:42:45.825Z,6.80
2019-03-05T04:45:28.043Z,6.80
2019-03-05T04:48:08.788Z,6.80
2019-03-05T04:51:08.624Z,6.80
2019-03-05T04:53:49.584Z,6.80
2019-03-05T04:56:30.373Z,6.70
2019-03-05T04:59:10.908Z,6.70
2019-03-05T05:01:51.684Z,6.70
2019-03-05T05:04:32.568Z,6.70
2019-03-05T05:07:13.020Z,6.70
2019-03-05T05:09:53.780Z,6.70
2019-03-05T05:12:34.233Z,6.70
2019-03-05T05:15:14.775Z,6.70
2019-03-05T05:17:55.165Z,6.70
2019-03-05T05:20:35.571Z,6.70
2019-03-05T05:23:16.369Z,6.70
2019-03-05T05:25:57.500Z,6.80
2019-03-05T05:28:38.156Z,6.80
2019-03-05T05:31:18.620Z,6.70
2019-03-05T05:33:59.286Z,6.70
2019-03-05T05:36:39.757Z,6.70
2019-03-05T05:39:20.717Z,6.60
2019-03-05T05:42:01.419Z,6.60
2019-03-05T05:44:41.962Z,6.60
2019-03-05T05:47:22.508Z,6.60
2019-03-05T05:50:03.172Z,6.50
2019-03-05T05:52:43.909Z,6.50
2019-03-05T05:55:24.475Z,6.50
2019-03-05T05:58:05.004Z,6.40
2019-03-05T06:00:48.244Z,6.40
2019-03-05T06:03:29.034Z,6.40
2019-03-05T06:06:10.008Z,6.30
2019-03-05T06:08:50.443Z,6.30
2019-03-05T06:11:31.167Z,6.30
2019-03-05T06:14:11.588Z,6.20
2019-03-05T06:16:52.093Z,6.30
2019-03-05T06:19:32.367Z,6.30
2019-03-05T06:22:12.836Z,6.20
2019-03-05T06:24:53.575Z,6.20
2019-03-05T06:27:34.398Z,6.20
2019-03-05T06:30:14.976Z,6.20
2019-03-05T06:32:55.653Z,6.20
2019-03-05T06:35:36.224Z,6.10
2019-03-05T06:38:16.630Z,6.10
2019-03-05T06:40:57.245Z,6.10
2019-03-05T06:43:38.217Z,6.10
2019-03-05T06:46:18.812Z,6.10
2019-03-05T06:48:59.654Z,6.10
2019-03-05T06:51:40.629Z,6.10
2019-03-05T06:54:21.252Z,6.20
2019-03-05T06:57:01.576Z,6.20
2019-03-05T06:59:42.093Z,6.20
2019-03-05T07:02:23.100Z,6.20
2019-03-05T07:05:03.648Z,6.20
2019-03-05T07:07:43.960Z,6.30
2019-03-05T07:10:24.738Z,6.20
2019-03-05T07:13:05.376Z,6.20
2019-03-05T07:15:45.841Z,6.30
2019-03-05T07:18:26.431Z,6.30
2019-03-05T07:21:07.064Z,6.30
2019-03-05T07:23:47.671Z,6.40
2019-03-05T07:26:28.239Z,6.50
2019-03-05T07:29:09.036Z,6.50
2019-03-05T07:31:50.245Z,6.50
2019-03-05T07:34:31.844Z,6.50
2019-03-05T07:37:13.256Z,6.50
2019-03-05T07:39:54.119Z,6.50
2019-03-05T07:42:35.272Z,6.60
2019-03-05T07:45:16.109Z,6.70
2019-03-05T07:47:57.132Z,6.70
2019-03-05T07:50:37.646Z,6.80
2019-03-05T07:53:18.099Z,6.70
2019-03-05T07:55:59.095Z,6.70
2019-03-05T07:58:39.911Z,6.80
2019-03-05T08:01:22.559Z,6.90
2019-03-05T08:04:03.483Z,7.10
2019-03-05T08:06:44.317Z,7.30
2019-03-05T08:09:24.865Z,7.50
2019-03-05T08:12:05.514Z,7.20
2019-03-05T08:14:45.912Z,7.30
2019-03-05T08:17:26.694Z,7.20
2019-03-05T08:20:07.428Z,7.20
2019-03-05T08:22:47.903Z,7.10
2019-03-05T08:25:28.207Z,7.10
2019-03-05T08:28:08.817Z,7.10
2019-03-05T08:30:49.259Z,7.10
2019-03-05T08:33:29.887Z,7.10
2019-03-05T08:36:10.441Z,7.10
2019-03-05T08:38:50.932Z,7.10
2019-03-05T08:41:31.473Z,7.10
2019-03-05T08:44:12.125Z,7.10
2019-03-05T08:46:52.830Z,7.10
2019-03-05T08:49:33.712Z,7.20
2019-03-05T08:52:14.400Z,7.20
2019-03-05T08:54:55.036Z,7.30
2019-03-05T08:57:35.693Z,7.30
2019-03-05T09:00:16.817Z,7.20
2019-03-05T09:02:57.649Z,7.20
2019-03-05T09:05:37.924Z,7.30
2019-03-05T09:08:18.377Z,7.40
2019-03-05T09:10:58.817Z,7.40
2019-03-05T09:13:39.397Z,7.50
2019-03-05T09:16:19.988Z,7.40
2019-03-05T09:19:00.539Z,7.40
2019-03-05T09:21:41.216Z,7.20
2019-03-05T09:24:21.761Z,7.30
2019-03-05T09:27:02.556Z,7.50
2019-03-05T09:29:43.205Z,7.40
2019-03-05T09:32:24.193Z,7.40
2019-03-05T09:35:04.829Z,7.50
2019-03-05T09:37:43.884Z,7.50
2019-03-05T09:40:31.808Z,7.50
2019-03-05T09:43:19.783Z,7.60
2019-03-05T09:46:07.697Z,7.50
2019-03-05T09:48:55.607Z,7.50
2019-03-05T09:51:43.572Z,7.50
2019-03-05T09:54:31.608Z,7.50
2019-03-05T09:57:19.624Z,7.50
2019-03-05T10:03:23.567Z,7.40
2019-03-05T10:06:11.621Z,7.50
2019-03-05T10:08:59.567Z,7.50
2019-03-05T10:11:47.485Z,7.40
2019-03-05T10:14:35.436Z,7.40
2019-03-05T10:17:23.344Z,7.30
2019-03-05T10:23:27.032Z,7.30
2019-03-05T10:26:10.353Z,7.30
2019-03-05T10:28:52.521Z,7.50
2019-03-05T10:31:33.410Z,7.70
2019-03-05T10:34:13.832Z,7.80
2019-03-05T10:36:54.290Z,7.90
2019-03-05T10:39:34.855Z,7.80
2019-03-05T10:42:15.137Z,7.80
2019-03-05T10:44:55.440Z,7.90
2019-03-05T10:47:35.761Z,7.90
2019-03-05T10:50:16.361Z,8.00
2019-03-05T10:52:56.844Z,8.00
2019-03-05T10:55:38.016Z,8.10
2019-03-05T10:58:18.685Z,8.10
2019-03-05T11:00:59.284Z,8.10
2019-03-05T11:03:39.828Z,8.10
2019-03-05T11:06:20.379Z,8.10
2019-03-05T11:09:01.037Z,8.20
2019-03-05T11:11:41.861Z,8.20
2019-03-05T11:14:22.734Z,8.30
2019-03-05T11:17:03.299Z,8.40
2019-03-05T11:19:44.142Z,8.50
2019-03-05T11:22:25.141Z,8.40
2019-03-05T11:25:05.604Z,8.80
2019-03-05T11:27:46.369Z,9.00
2019-03-05T11:30:35.782Z,8.80
2019-03-05T11:33:09.253Z,8.80
2019-03-05T11:35:50.020Z,8.50
2019-03-05T11:38:30.768Z,8.40
2019-03-05T11:41:11.534Z,8.30
2019-03-05T11:43:52.096Z,8.20
2019-03-05T11:46:32.550Z,8.40
2019-03-05T11:49:12.850Z,7.90
2019-03-05T11:51:53.620Z,7.70
2019-03-05T11:54:34.401Z,7.30
2019-03-05T11:57:15.161Z,7.20
2019-03-05T11:59:55.504Z,7.40
2019-03-05T12:02:36.260Z,8.50
2019-03-05T12:05:16.643Z,10.30
2019-03-05T12:07:57.193Z,11.60
2019-03-05T12:10:37.570Z,11.50
2019-03-05T12:13:17.817Z,12.50
2019-03-05T12:15:58.544Z,14.00
2019-03-05T12:18:39.012Z,13.90
2019-03-05T12:21:19.563Z,14.30
2019-03-05T12:24:00.273Z,12.30
2019-03-05T12:26:40.637Z,10.70
2019-03-05T12:29:21.309Z,9.70
2019-03-05T12:32:00.314Z,9.30
2019-03-05T12:34:48.204Z,8.80
2019-03-05T12:37:36.146Z,8.20
2019-03-05T12:40:24.135Z,8.30
2019-03-05T12:43:12.048Z,10.80
2019-03-05T12:45:59.976Z,13.00
2019-03-05T12:48:47.876Z,13.20
2019-03-05T12:51:35.881Z,13.70
2019-03-05T12:54:23.814Z,13.70
2019-03-05T12:57:11.712Z,14.00
2019-03-05T12:59:59.744Z,14.50
2019-03-05T13:02:47.633Z,13.70
2019-03-05T13:05:35.567Z,14.60
2019-03-05T13:08:23.484Z,15.00
2019-03-05T13:11:13.103Z,14.00
2019-03-05T13:14:05.690Z,15.20
2019-03-05T13:16:39.367Z,14.40
2019-03-05T13:19:18.680Z,14.30
2019-03-05T13:21:59.054Z,13.50
2019-03-05T13:24:39.588Z,12.70
2019-03-05T13:27:22.861Z,12.00
2019-03-05T13:30:02.739Z,11.60
2019-03-05T13:32:43.656Z,12.10
2019-03-05T13:35:25.324Z,11.00
2019-03-05T13:38:08.932Z,10.80
2019-03-05T13:40:49.641Z,11.40
2019-03-05T13:43:30.267Z,12.00
2019-03-05T13:46:10.801Z,12.20
2019-03-05T13:48:58.379Z,13.70
2019-03-05T13:51:34.717Z,14.20
2019-03-05T13:54:15.483Z,14.40
2019-03-05T13:56:56.564Z,15.30
2019-03-05T13:59:37.315Z,16.20
2019-03-05T14:02:18.148Z,15.80
2019-03-05T14:04:58.648Z,15.50
2019-03-05T14:07:39.493Z,14.70
2019-03-05T14:10:20.284Z,14.10
2019-03-05T14:13:00.797Z,13.60
2019-03-05T14:15:42.860Z,13.70
2019-03-05T14:18:23.793Z,14.90
2019-03-05T14:21:04.324Z,14.30
2019-03-05T14:23:44.914Z,15.60
2019-03-05T14:26:25.709Z,15.70
2019-03-05T14:29:06.377Z,16.50
2019-03-05T14:31:46.818Z,16.10
2019-03-05T14:34:27.595Z,15.90
2019-03-05T14:37:08.241Z,15.90
2019-03-05T14:39:49.378Z,15.60
2019-03-05T14:42:30.144Z,14.30
2019-03-05T14:45:10.965Z,13.40
2019-03-05T14:47:51.575Z,13.30
2019-03-05T14:50:32.428Z,12.60
2019-03-05T14:53:13.225Z,12.00
2019-03-05T14:55:54.619Z,11.90
2019-03-05T14:58:35.517Z,12.20
2019-03-05T15:01:16.280Z,12.80
2019-03-05T15:03:57.148Z,14.60
2019-03-05T15:06:37.832Z,14.20
2019-03-05T15:09:18.715Z,13.80
2019-03-05T15:11:59.868Z,13.80
2019-03-05T15:14:40.383Z,14.20
2019-03-05T15:17:21.139Z,14.10
2019-03-05T15:20:02.005Z,13.90
2019-03-05T15:22:43.026Z,14.20
2019-03-05T15:25:23.755Z,14.40
2019-03-05T15:28:04.665Z,15.00
2019-03-05T15:30:45.247Z,14.90
2019-03-05T15:33:25.994Z,14.50
2019-03-05T15:36:06.893Z,15.00
2019-03-05T15:38:47.312Z,14.70
2019-03-05T15:41:28.012Z,14.00
2019-03-05T15:44:08.700Z,13.10
2019-03-05T15:46:49.137Z,12.30
2019-03-05T15:49:29.589Z,11.70
2019-03-05T15:52:10.384Z,11.50
2019-03-05T15:54:51.140Z,12.50
2019-03-05T15:57:31.641Z,13.30
2019-03-05T16:00:12.658Z,13.80
2019-03-05T16:02:53.296Z,13.80
2019-03-05T16:05:34.131Z,13.30
2019-03-05T16:08:14.667Z,12.10
2019-03-05T16:10:58.469Z,11.30
2019-03-05T16:13:38.950Z,10.60
2019-03-05T16:16:19.445Z,10.60
2019-03-05T16:19:00.149Z,10.50
2019-03-05T16:21:42.609Z,10.30
2019-03-05T16:24:23.155Z,10.20
2019-03-05T16:27:03.833Z,10.10
2019-03-05T16:29:44.152Z,9.90
2019-03-05T16:32:40.284Z,9.80
2019-03-05T16:35:40.380Z,9.80
2019-03-05T16:38:42.777Z,9.60
2019-03-05T16:41:32.565Z,9.60
2019-03-05T16:44:18.745Z,9.50
2019-03-05T16:47:18.810Z,9.40
2019-03-05T16:50:07.412Z,9.40
2019-03-05T16:53:10.042Z,9.40
2019-03-05T16:56:09.442Z,9.30
2019-03-05T16:59:09.018Z,9.30
2019-03-05T17:02:09.323Z,9.30
2019-03-05T17:04:59.731Z,9.20
2019-03-05T17:07:59.816Z,9.20
2019-03-05T17:11:02.177Z,9.20
2019-03-05T17:13:42.821Z,9.10
2019-03-05T17:16:23.845Z,9.00
2019-03-05T17:19:04.784Z,8.90
2019-03-05T17:21:45.807Z,8.90
2019-03-05T17:24:27.081Z,8.90
2019-03-05T17:27:07.515Z,8.80
2019-03-05T17:29:48.509Z,8.80
2019-03-05T17:32:29.160Z,8.70
2019-03-05T17:35:10.080Z,8.70
2019-03-05T17:37:50.894Z,8.70
2019-03-05T17:40:31.620Z,8.60
2019-03-05T17:43:12.283Z,8.60
2019-03-05T17:45:52.818Z,8.50
2019-03-05T17:48:33.381Z,8.50
2019-03-05T17:51:14.489Z,8.50
2019-03-05T17:53:55.140Z,8.50
2019-03-05T17:56:35.908Z,8.50
2019-03-05T17:59:16.655Z,8.60
2019-03-05T18:01:57.359Z,8.60
2019-03-05T18:04:38.260Z,8.40
2019-03-05T18:07:19.064Z,8.30
2019-03-05T18:10:01.775Z,8.40
2019-03-05T18:12:42.592Z,8.40
2019-03-05T18:15:23.396Z,8.30
2019-03-05T18:18:03.963Z,8.40
2019-03-05T18:20:44.787Z,8.30
2019-03-05T18:23:25.766Z,8.40
2019-03-05T18:26:06.496Z,8.40
2019-03-05T18:28:47.207Z,8.30
2019-03-05T18:31:28.031Z,8.30
2019-03-05T18:34:08.794Z,8.30
2019-03-05T18:36:49.298Z,8.20
2019-03-05T18:39:30.012Z,8.20
2019-03-05T18:42:10.581Z,8.10
2019-03-05T18:44:51.266Z,8.00
2019-03-05T18:47:32.032Z,8.00
2019-03-05T18:50:12.912Z,8.00
2019-03-05T18:52:53.752Z,8.00
2019-03-05T18:55:34.381Z,8.00
2019-03-05T18:58:15.049Z,7.90
2019-03-05T19:00:55.920Z,7.90
2019-03-05T19:03:36.960Z,7.80
2019-03-05T19:06:17.648Z,7.70
2019-03-05T19:08:58.692Z,7.70
2019-03-05T19:11:39.400Z,7.60
2019-03-05T19:14:20.277Z,7.60
2019-03-05T19:17:00.892Z,7.60
2019-03-05T19:19:41.477Z,7.60
2019-03-05T19:22:22.182Z,7.60
2019-03-05T19:25:02.973Z,7.50
2019-03-05T19:27:43.815Z,7.50
2019-03-05T19:30:24.535Z,7.50
2019-03-05T19:33:05.092Z,7.50
2019-03-05T19:35:45.738Z,7.50
2019-03-05T19:38:26.504Z,7.40
2019-03-05T19:41:07.267Z,7.40
2019-03-05T19:43:47.927Z,7.40
2019-03-05T19:46:28.757Z,7.40
2019-03-05T19:49:09.446Z,7.40
2019-03-05T19:51:50.174Z,7.30
2019-03-05T19:54:31.049Z,7.30
2019-03-05T19:57:11.669Z,7.30
2019-03-05T19:59:52.401Z,7.30
2019-03-05T20:02:32.762Z,7.30
2019-03-05T20:05:13.447Z,7.20
2019-03-05T20:07:54.541Z,7.20
2019-03-05T20:10:35.481Z,7.20
2019-03-05T20:13:16.149Z,7.20
2019-03-05T20:15:56.985Z,7.20
2019-03-05T20:18:37.771Z,7.20
2019-03-05T20:21:18.634Z,7.10
2019-03-05T20:23:59.414Z,7.10
2019-03-05T20:26:40.272Z,7.10
2019-03-05T20:29:21.004Z,7.00
2019-03-05T20:32:01.723Z,7.00
2019-03-05T20:34:42.503Z,7.00
2019-03-05T20:37:23.304Z,7.00
2019-03-05T20:40:04.209Z,6.90
2019-03-05T20:42:44.971Z,7.00
2019-03-05T20:45:25.435Z,6.90
2019-03-05T20:48:06.405Z,7.00
2019-03-05T20:50:47.090Z,7.00
2019-03-05T20:53:27.746Z,6.90
2019-03-05T20:56:08.482Z,6.80
2019-03-05T20:58:48.938Z,6.80
2019-03-05T21:01:30.157Z,6.80
2019-03-05T21:04:10.803Z,6.90
2019-03-05T21:06:51.532Z,6.90
2019-03-05T21:09:32.226Z,6.80
2019-03-05T21:12:12.840Z,6.80
2019-03-05T21:14:53.384Z,6.80
2019-03-05T21:17:34.256Z,6.90
2019-03-05T21:20:14.996Z,6.70
2019-03-05T21:22:55.627Z,6.70
2019-03-05T21:25:36.425Z,6.70
2019-03-05T21:28:17.216Z,6.60
2019-03-05T21:30:58.076Z,6.50
2019-03-05T21:33:38.970Z,6.50
2019-03-05T21:36:19.606Z,6.50
2019-03-05T21:39:00.430Z,6.50
2019-03-05T21:41:41.236Z,6.40
2019-03-05T21:44:22.155Z,6.40
2019-03-05T21:47:02.511Z,6.30
2019-03-05T21:49:43.333Z,6.30
2019-03-05T21:52:24.045Z,6.30
2019-03-05T21:55:04.766Z,6.40
2019-03-05T21:57:45.751Z,6.40
2019-03-05T22:00:26.368Z,6.40
2019-03-05T22:03:07.017Z,6.40
2019-03-05T22:05:47.658Z,6.30
2019-03-05T22:08:28.239Z,6.30
2019-03-05T22:11:09.096Z,6.30
2019-03-05T22:13:49.621Z,6.40
2019-03-05T22:16:30.352Z,6.40
2019-03-05T22:19:11.242Z,6.30
2019-03-05T22:21:52.504Z,6.30
2019-03-05T22:24:33.102Z,6.40
2019-03-05T22:27:13.681Z,6.40
2019-03-05T22:29:54.149Z,6.30
2019-03-05T22:32:34.737Z,6.30
2019-03-05T22:35:15.285Z,6.30
2019-03-05T22:37:55.840Z,6.30
2019-03-05T22:40:36.347Z,6.20
2019-03-05T22:43:16.956Z,6.20
2019-03-05T22:45:57.688Z,6.20
2019-03-05T22:48:38.417Z,6.20
2019-03-05T22:51:19.184Z,6.20
2019-03-05T22:54:00.091Z,6.20
2019-03-05T22:56:40.597Z,6.20
2019-03-05T22:59:21.072Z,6.10
2019-03-05T23:02:01.838Z,6.10
2019-03-05T23:04:42.980Z,6.10
2019-03-05T23:07:23.628Z,6.10
2019-03-05T23:10:04.229Z,6.10
2019-03-05T23:12:44.909Z,6.10
2019-03-05T23:15:25.492Z,6.10
2019-03-05T23:18:05.778Z,6.10
2019-03-05T23:20:46.849Z,6.10
2019-03-05T23:23:27.521Z,6.10
2019-03-05T23:26:08.239Z,6.20
2019-03-05T23:28:49.280Z,6.20
2019-03-05T23:31:30.115Z,6.20
2019-03-05T23:34:18.062Z,6.10
2019-03-05T23:36:53.748Z,6.10
2019-03-05T23:39:34.703Z,6.10
2019-03-05T23:42:15.356Z,6.00
2019-03-05T23:44:55.877Z,6.00
2019-03-05T23:47:36.465Z,5.90
2019-03-05T23:50:17.087Z,6.00
2019-03-05T23:52:57.656Z,7.70
2019-03-05T23:55:38.467Z,7.10
2019-03-05T23:58:19.184Z,6.70
